createdAt,value
2022-10-18T00:00:03.935Z,100431.14
2022-10-18T00:00:13.928Z,100433.48
2022-10-18T00:00:23.836Z,100431.91
2022-10-18T00:00:33.932Z,100433.81
2022-10-18T00:00:43.867Z,100432.42
2022-10-18T00:00:53.895Z,100431.48
2022-10-18T00:01:03.842Z,100429.77
2022-10-18T00:01:13.893Z,100438.29
2022-10-18T00:01:23.876Z,100434.38
2022-10-18T00:01:33.890Z,100434.20
2022-10-18T00:01:43.906Z,100434.22
2022-10-18T00:01:53.958Z,100431.87
2022-10-18T00:02:03.887Z,100434.72
2022-10-18T00:02:13.852Z,100435.34
2022-10-18T00:02:23.902Z,100432.28
2022-10-18T00:02:34.095Z,100433.69
2022-10-18T00:02:43.824Z,100435.25
2022-10-18T00:02:53.944Z,100431.34
2022-10-18T00:03:03.875Z,100431.34
2022-10-18T00:03:13.825Z,100429.86
2022-10-18T00:03:23.853Z,100432.55
2022-10-18T00:03:33.888Z,100430.58
2022-10-18T00:03:43.882Z,100431.59
2022-10-18T00:03:53.858Z,100432.16
2022-10-18T00:04:03.838Z,100432.91
2022-10-18T00:04:13.826Z,100430.06
2022-10-18T00:04:23.877Z,100429.05
2022-10-18T00:04:33.818Z,100432.91
2022-10-18T00:04:43.838Z,100433.03
2022-10-18T00:04:53.830Z,100429.17
2022-10-18T00:05:03.915Z,100430.10
2022-10-18T00:05:13.908Z,100428.12
2022-10-18T00:05:23.953Z,100439.14
2022-10-18T00:05:33.830Z,100435.55
2022-10-18T00:05:43.896Z,100431.47
2022-10-18T00:05:53.915Z,100432.14
2022-10-18T00:06:03.909Z,100436.45
2022-10-18T00:06:13.948Z,100436.00
2022-10-18T00:06:23.858Z,100434.82
2022-10-18T00:06:33.941Z,100432.16
2022-10-18T00:06:43.911Z,100442.37
2022-10-18T00:06:53.849Z,100437.92
2022-10-18T00:07:03.857Z,100432.16
2022-10-18T00:07:13.884Z,100434.47
2022-10-18T00:07:23.927Z,100438.35
2022-10-18T00:07:33.977Z,100433.17
2022-10-18T00:07:43.915Z,100440.29
2022-10-18T00:07:53.923Z,100445.75
2022-10-18T00:08:03.826Z,100436.51
2022-10-18T00:08:13.943Z,100440.74
2022-10-18T00:08:23.833Z,100436.55
2022-10-18T00:08:33.875Z,100439.91
2022-10-18T00:08:43.828Z,100443.72
2022-10-18T00:08:53.866Z,100435.95
2022-10-18T00:09:03.820Z,100438.88
2022-10-18T00:09:13.926Z,100439.41
2022-10-18T00:09:23.888Z,100438.47
2022-10-18T00:09:33.842Z,100438.64
2022-10-18T00:09:43.941Z,100436.20
2022-10-18T00:09:53.893Z,100434.38
2022-10-18T00:10:03.944Z,100440.08
2022-10-18T00:10:13.869Z,100440.58
2022-10-18T00:10:23.841Z,100439.64
2022-10-18T00:10:33.906Z,100437.54
2022-10-18T00:10:43.827Z,100438.64
2022-10-18T00:10:53.890Z,100436.89
2022-10-18T00:11:03.939Z,100442.92
2022-10-18T00:11:13.944Z,100440.31
2022-10-18T00:11:23.861Z,100436.45
2022-10-18T00:11:33.864Z,100439.41
2022-10-18T00:11:43.832Z,100436.96
2022-10-18T00:11:53.948Z,100439.39
2022-10-18T00:12:03.922Z,100438.42
2022-10-18T00:12:13.884Z,100436.37
2022-10-18T00:12:23.876Z,100443.23
2022-10-18T00:12:33.877Z,100442.06
2022-10-18T00:12:43.968Z,100443.41
2022-10-18T00:12:53.878Z,100442.69
2022-10-18T00:13:03.902Z,100447.38
2022-10-18T00:13:13.873Z,100443.09
2022-10-18T00:13:23.943Z,100443.05
2022-10-18T00:13:33.855Z,100441.92
2022-10-18T00:13:43.871Z,100447.77
2022-10-18T00:13:53.936Z,100442.07
2022-10-18T00:14:03.925Z,100442.69
2022-10-18T00:14:13.920Z,100447.89
2022-10-18T00:14:23.934Z,100443.53
2022-10-18T00:14:33.913Z,100447.50
2022-10-18T00:14:43.883Z,100442.29
2022-10-18T00:14:53.965Z,100445.64
2022-10-18T00:15:03.858Z,100447.36
2022-10-18T00:15:13.841Z,100444.84
2022-10-18T00:15:23.825Z,100448.34
2022-10-18T00:15:33.935Z,100448.68
2022-10-18T00:15:43.929Z,100443.60
2022-10-18T00:15:53.885Z,100445.95
2022-10-18T00:16:03.903Z,100443.51
2022-10-18T00:16:13.856Z,100449.38
2022-10-18T00:16:23.894Z,100446.86
2022-10-18T00:16:33.816Z,100443.46
2022-10-18T00:16:43.952Z,100445.06
2022-10-18T00:16:53.920Z,100445.81
2022-10-18T00:17:03.902Z,100446.31
2022-10-18T00:17:13.843Z,100448.56
2022-10-18T00:17:23.918Z,100448.90
2022-10-18T00:17:34.007Z,100448.02
2022-10-18T00:17:43.889Z,100447.44
2022-10-18T00:17:53.898Z,100443.39
2022-10-18T00:18:03.825Z,100449.02
2022-10-18T00:18:13.919Z,100446.75
2022-10-18T00:18:23.918Z,100450.43
2022-10-18T00:18:33.930Z,100448.42
2022-10-18T00:18:43.931Z,100448.88
2022-10-18T00:18:53.894Z,100445.69
2022-10-18T00:19:04.002Z,100441.67
2022-10-18T00:19:13.840Z,100446.95
2022-10-18T00:19:25.985Z,100449.12
2022-10-18T00:19:33.897Z,100447.82
2022-10-18T00:19:43.923Z,100448.90
2022-10-18T00:19:53.888Z,100449.50
2022-10-18T00:20:03.898Z,100449.16
2022-10-18T00:20:13.938Z,100450.74
2022-10-18T00:20:23.924Z,100449.81
2022-10-18T00:20:33.883Z,100443.97
2022-10-18T00:20:43.887Z,100444.73
2022-10-18T00:20:53.838Z,100447.11
2022-10-18T00:21:03.824Z,100447.83
2022-10-18T00:21:13.925Z,100445.67
2022-10-18T00:21:23.902Z,100446.98
2022-10-18T00:21:33.902Z,100444.66
2022-10-18T00:21:53.874Z,100445.45
2022-10-18T00:22:03.844Z,100445.78
2022-10-18T00:22:13.833Z,100444.52
2022-10-18T00:22:23.913Z,100446.96
2022-10-18T00:22:34.049Z,100445.73
2022-10-18T00:22:43.910Z,100443.88
2022-10-18T00:22:53.817Z,100442.03
2022-10-18T00:23:03.875Z,100445.14
2022-10-18T00:23:13.933Z,100449.09
2022-10-18T00:23:23.830Z,100446.65
2022-10-18T00:23:33.858Z,100451.52
2022-10-18T00:23:43.918Z,100444.55
2022-10-18T00:23:53.921Z,100444.92
2022-10-18T00:24:03.844Z,100442.23
2022-10-18T00:24:13.855Z,100444.75
2022-10-18T00:24:23.922Z,100444.66
2022-10-18T00:24:33.894Z,100449.11
2022-10-18T00:24:43.882Z,100448.52
2022-10-18T00:24:53.937Z,100450.19
2022-10-18T00:25:03.936Z,100446.20
2022-10-18T00:25:13.902Z,100447.44
2022-10-18T00:25:23.851Z,100446.64
2022-10-18T00:25:33.834Z,100447.89
2022-10-18T00:25:43.867Z,100446.27
2022-10-18T00:25:53.835Z,100451.25
2022-10-18T00:26:03.899Z,100448.49
2022-10-18T00:26:13.844Z,100448.73
2022-10-18T00:26:23.816Z,100444.56
2022-10-18T00:26:33.906Z,100449.64
2022-10-18T00:26:43.945Z,100445.67
2022-10-18T00:26:53.909Z,100445.33
2022-10-18T00:27:03.908Z,100447.34
2022-10-18T00:27:13.898Z,100452.03
2022-10-18T00:27:23.850Z,100449.92
2022-10-18T00:27:33.923Z,100448.66
2022-10-18T00:27:43.908Z,100448.34
2022-10-18T00:27:53.866Z,100450.09
2022-10-18T00:28:03.909Z,100450.60
2022-10-18T00:28:13.895Z,100448.85
2022-10-18T00:28:23.988Z,100447.51
2022-10-18T00:28:33.935Z,100446.31
2022-10-18T00:28:43.933Z,100446.67
2022-10-18T00:28:53.926Z,100448.75
2022-10-18T00:29:04.006Z,100445.48
2022-10-18T00:29:13.934Z,100446.58
2022-10-18T00:29:23.942Z,100443.80
2022-10-18T00:29:33.897Z,100448.02
2022-10-18T00:29:43.896Z,100447.48
2022-10-18T00:29:53.897Z,100448.85
2022-10-18T00:30:03.927Z,100449.52
2022-10-18T00:30:13.849Z,100444.56
2022-10-18T00:30:23.835Z,100446.00
2022-10-18T00:30:33.827Z,100449.59
2022-10-18T00:30:43.948Z,100444.16
2022-10-18T00:30:53.861Z,100444.33
2022-10-18T00:31:03.924Z,100445.73
2022-10-18T00:31:13.914Z,100444.39
2022-10-18T00:31:23.868Z,100448.25
2022-10-18T00:31:33.964Z,100447.17
2022-10-18T00:31:43.849Z,100449.84
2022-10-18T00:31:53.892Z,100451.01
2022-10-18T00:32:03.846Z,100450.84
2022-10-18T00:32:13.948Z,100451.68
2022-10-18T00:32:23.833Z,100445.77
2022-10-18T00:32:34.218Z,100444.75
2022-10-18T00:32:43.912Z,100447.44
2022-10-18T00:32:53.832Z,100449.19
2022-10-18T00:33:03.930Z,100448.23
2022-10-18T00:33:13.900Z,100447.39
2022-10-18T00:33:23.942Z,100449.05
2022-10-18T00:33:33.933Z,100446.79
2022-10-18T00:33:43.928Z,100450.05
2022-10-18T00:33:53.827Z,100452.27
2022-10-18T00:34:03.943Z,100452.17
2022-10-18T00:34:13.943Z,100447.48
2022-10-18T00:34:23.898Z,100446.22
2022-10-18T00:34:33.887Z,100449.28
2022-10-18T00:34:43.888Z,100451.84
2022-10-18T00:34:53.914Z,100448.73
2022-10-18T00:35:03.930Z,100452.46
2022-10-18T00:35:13.854Z,100452.30
2022-10-18T00:35:23.821Z,100447.17
2022-10-18T00:35:33.938Z,100451.70
2022-10-18T00:35:43.912Z,100452.97
2022-10-18T00:35:53.818Z,100452.12
2022-10-18T00:36:03.920Z,100453.20
2022-10-18T00:36:13.898Z,100453.13
2022-10-18T00:36:23.920Z,100454.95
2022-10-18T00:36:33.866Z,100454.45
2022-10-18T00:36:43.878Z,100451.10
2022-10-18T00:36:53.921Z,100454.83
2022-10-18T00:37:03.892Z,100451.61
2022-10-18T00:37:13.935Z,100451.22
2022-10-18T00:37:23.847Z,100449.66
2022-10-18T00:37:33.830Z,100453.91
2022-10-18T00:37:43.921Z,100454.62
2022-10-18T00:37:53.888Z,100451.05
2022-10-18T00:38:03.944Z,100451.94
2022-10-18T00:38:13.854Z,100454.00
2022-10-18T00:38:23.920Z,100450.27
2022-10-18T00:38:33.869Z,100449.30
2022-10-18T00:38:43.880Z,100456.30
2022-10-18T00:38:53.889Z,100449.64
2022-10-18T00:39:03.848Z,100451.94
2022-10-18T00:39:13.893Z,100453.45
2022-10-18T00:39:23.860Z,100450.50
2022-10-18T00:39:33.872Z,100450.84
2022-10-18T00:39:43.906Z,100454.74
2022-10-18T00:39:53.885Z,100453.91
2022-10-18T00:40:03.931Z,100450.50
2022-10-18T00:40:13.970Z,100448.47
2022-10-18T00:40:23.907Z,100449.47
2022-10-18T00:40:33.865Z,100451.31
2022-10-18T00:40:43.864Z,100449.98
2022-10-18T00:40:53.930Z,100447.00
2022-10-18T00:41:03.843Z,100455.38
2022-10-18T00:41:13.942Z,100449.09
2022-10-18T00:41:23.917Z,100449.92
2022-10-18T00:41:33.887Z,100449.34
2022-10-18T00:41:43.892Z,100447.75
2022-10-18T00:41:53.956Z,100450.81
2022-10-18T00:42:03.918Z,100453.33
2022-10-18T00:42:13.894Z,100450.55
2022-10-18T00:42:23.885Z,100450.42
2022-10-18T00:42:34.206Z,100451.36
2022-10-18T00:42:43.890Z,100447.24
2022-10-18T00:42:53.854Z,100452.70
2022-10-18T00:43:03.906Z,100453.44
2022-10-18T00:43:13.895Z,100449.92
2022-10-18T00:43:23.890Z,100450.42
2022-10-18T00:43:33.875Z,100453.02
2022-10-18T00:43:43.874Z,100448.83
2022-10-18T00:43:53.816Z,100452.39
2022-10-18T00:44:03.832Z,100450.98
2022-10-18T00:44:13.817Z,100452.34
2022-10-18T00:44:23.820Z,100451.72
2022-10-18T00:44:33.865Z,100450.72
2022-10-18T00:44:43.822Z,100453.78
2022-10-18T00:44:53.944Z,100451.84
2022-10-18T00:45:03.909Z,100457.30
2022-10-18T00:45:13.903Z,100453.97
2022-10-18T00:45:23.868Z,100450.62
2022-10-18T00:45:33.954Z,100453.47
2022-10-18T00:45:43.888Z,100455.41
2022-10-18T00:45:53.874Z,100450.45
2022-10-18T00:46:03.889Z,100452.34
2022-10-18T00:46:13.849Z,100454.30
2022-10-18T00:46:23.820Z,100453.47
2022-10-18T00:46:33.920Z,100453.20
2022-10-18T00:46:43.868Z,100450.12
2022-10-18T00:46:53.891Z,100453.66
2022-10-18T00:47:03.867Z,100450.56
2022-10-18T00:47:13.853Z,100452.73
2022-10-18T00:47:23.849Z,100454.25
2022-10-18T00:47:33.951Z,100450.25
2022-10-18T00:47:43.876Z,100451.14
2022-10-18T00:47:53.932Z,100450.76
2022-10-18T00:48:03.859Z,100454.34
2022-10-18T00:48:13.933Z,100452.00
2022-10-18T00:48:23.883Z,100453.56
2022-10-18T00:48:33.866Z,100452.05
2022-10-18T00:48:43.933Z,100454.44
2022-10-18T00:49:03.863Z,100453.49
2022-10-18T00:49:13.863Z,100455.19
2022-10-18T00:49:23.933Z,100450.59
2022-10-18T00:49:33.841Z,100448.00
2022-10-18T00:49:43.840Z,100454.38
2022-10-18T00:49:53.870Z,100458.28
2022-10-18T00:50:03.909Z,100455.30
2022-10-18T00:50:13.824Z,100454.49
2022-10-18T00:50:23.848Z,100450.80
2022-10-18T00:50:33.909Z,100454.88
2022-10-18T00:50:43.837Z,100453.31
2022-10-18T00:50:53.912Z,100454.32
2022-10-18T00:51:03.828Z,100456.62
2022-10-18T00:51:13.858Z,100456.73
2022-10-18T00:51:23.909Z,100457.46
2022-10-18T00:51:33.926Z,100456.91
2022-10-18T00:51:43.873Z,100455.98
2022-10-18T00:51:53.838Z,100451.73
2022-10-18T00:52:03.904Z,100454.47
2022-10-18T00:52:13.931Z,100454.58
2022-10-18T00:52:23.880Z,100452.14
2022-10-18T00:52:34.166Z,100454.16
2022-10-18T00:52:43.912Z,100453.98
2022-10-18T00:52:53.937Z,100455.59
2022-10-18T00:53:03.838Z,100454.20
2022-10-18T00:53:13.903Z,100452.19
2022-10-18T00:53:23.961Z,100452.20
2022-10-18T00:53:33.846Z,100454.34
2022-10-18T00:53:43.906Z,100453.45
2022-10-18T00:53:53.868Z,100453.45
2022-10-18T00:54:03.947Z,100448.72
2022-10-18T00:54:13.891Z,100453.23
2022-10-18T00:54:23.953Z,100453.53
2022-10-18T00:54:33.824Z,100445.36
2022-10-18T00:54:43.903Z,100449.72
2022-10-18T00:54:53.833Z,100449.36
2022-10-18T00:55:03.949Z,100448.28
2022-10-18T00:55:13.878Z,100449.03
2022-10-18T00:55:23.821Z,100449.36
2022-10-18T00:55:33.876Z,100453.22
2022-10-18T00:55:43.906Z,100448.70
2022-10-18T00:55:53.946Z,100453.05
2022-10-18T00:56:03.908Z,100451.75
2022-10-18T00:56:13.870Z,100450.82
2022-10-18T00:56:23.829Z,100450.08
2022-10-18T00:56:33.944Z,100451.38
2022-10-18T00:56:43.906Z,100450.31
2022-10-18T00:56:53.883Z,100451.06
2022-10-18T00:57:03.837Z,100450.41
2022-10-18T00:57:13.895Z,100449.72
2022-10-18T00:57:23.938Z,100451.73
2022-10-18T00:57:33.919Z,100449.50
2022-10-18T00:57:43.916Z,100450.84
2022-10-18T00:58:03.847Z,100452.09
2022-10-18T00:58:13.984Z,100457.45
2022-10-18T00:58:23.829Z,100453.43
2022-10-18T00:58:33.936Z,100448.76
2022-10-18T00:58:43.917Z,100448.76
2022-10-18T00:58:53.921Z,100451.25
2022-10-18T00:59:03.937Z,100450.03
2022-10-18T00:59:13.956Z,100451.20
2022-10-18T00:59:23.855Z,100448.63
2022-10-18T00:59:33.884Z,100453.78
2022-10-18T00:59:43.830Z,100455.62
2022-10-18T00:59:53.930Z,100460.36
2022-10-18T01:00:03.822Z,100454.33
2022-10-18T01:00:13.873Z,100455.96
2022-10-18T01:00:23.873Z,100456.80
2022-10-18T01:00:33.891Z,100450.61
2022-10-18T01:00:43.933Z,100456.34
2022-10-18T01:00:53.901Z,100455.67
2022-10-18T01:01:03.904Z,100452.82
2022-10-18T01:01:13.974Z,100455.08
2022-10-18T01:01:27.473Z,100449.38
2022-10-18T01:01:33.948Z,100447.20
2022-10-18T01:01:43.950Z,100456.52
2022-10-18T01:01:53.906Z,100454.74
2022-10-18T01:02:04.059Z,100453.98
2022-10-18T01:02:13.882Z,100461.99
2022-10-18T01:02:23.917Z,100452.66
2022-10-18T01:02:34.125Z,100458.85
2022-10-18T01:02:43.885Z,100454.33
2022-10-18T01:02:53.827Z,100456.17
2022-10-18T01:03:03.833Z,100454.06
2022-10-18T01:03:13.911Z,100454.41
2022-10-18T01:03:23.886Z,100453.66
2022-10-18T01:03:33.884Z,100455.31
2022-10-18T01:03:43.849Z,100459.02
2022-10-18T01:03:53.835Z,100452.97
2022-10-18T01:04:03.921Z,100456.94
2022-10-18T01:04:13.885Z,100460.67
2022-10-18T01:04:23.884Z,100461.01
2022-10-18T01:04:33.939Z,100454.02
2022-10-18T01:04:43.921Z,100456.98
2022-10-18T01:04:53.841Z,100462.35
2022-10-18T01:05:03.818Z,100460.60
2022-10-18T01:05:13.963Z,100458.78
2022-10-18T01:05:23.907Z,100460.96
2022-10-18T01:05:33.880Z,100463.81
2022-10-18T01:05:43.871Z,100463.98
2022-10-18T01:05:53.925Z,100461.46
2022-10-18T01:06:03.930Z,100460.23
2022-10-18T01:06:13.870Z,100460.53
2022-10-18T01:06:23.947Z,100456.39
2022-10-18T01:06:33.912Z,100462.75
2022-10-18T01:06:43.959Z,100463.25
2022-10-18T01:06:53.936Z,100461.41
2022-10-18T01:07:03.947Z,100458.90
2022-10-18T01:07:13.892Z,100460.23
2022-10-18T01:07:23.821Z,100465.43
2022-10-18T01:07:34.120Z,100463.55
2022-10-18T01:07:43.820Z,100461.89
2022-10-18T01:07:53.943Z,100460.72
2022-10-18T01:08:03.834Z,100462.06
2022-10-18T01:08:13.924Z,100463.23
2022-10-18T01:08:23.948Z,100462.34
2022-10-18T01:08:33.889Z,100457.66
2022-10-18T01:08:43.847Z,100459.33
2022-10-18T01:08:53.927Z,100462.84
2022-10-18T01:09:03.860Z,100463.90
2022-10-18T01:09:13.957Z,100462.06
2022-10-18T01:09:23.859Z,100459.28
2022-10-18T01:09:33.893Z,100463.34
2022-10-18T01:09:43.903Z,100461.02
2022-10-18T01:09:53.911Z,100464.80
2022-10-18T01:10:03.923Z,100469.33
2022-10-18T01:10:13.865Z,100465.64
2022-10-18T01:10:23.926Z,100464.78
2022-10-18T01:10:33.827Z,100466.13
2022-10-18T01:10:43.945Z,100465.55
2022-10-18T01:10:53.822Z,100462.36
2022-10-18T01:11:03.842Z,100467.30
2022-10-18T01:11:13.907Z,100467.55
2022-10-18T01:11:23.871Z,100464.80
2022-10-18T01:11:33.893Z,100465.88
2022-10-18T01:11:43.841Z,100464.98
2022-10-18T01:11:53.914Z,100465.39
2022-10-18T01:12:03.818Z,100465.27
2022-10-18T01:12:13.851Z,100466.73
2022-10-18T01:12:23.844Z,100465.44
2022-10-18T01:12:33.930Z,100465.09
2022-10-18T01:12:43.923Z,100468.23
2022-10-18T01:12:53.920Z,100467.27
2022-10-18T01:13:03.943Z,100467.44
2022-10-18T01:13:13.897Z,100465.60
2022-10-18T01:13:25.787Z,100466.44
2022-10-18T01:13:33.880Z,100460.58
2022-10-18T01:13:43.851Z,100459.86
2022-10-18T01:13:53.923Z,100463.42
2022-10-18T01:14:03.815Z,100463.76
2022-10-18T01:14:13.940Z,100462.55
2022-10-18T01:14:23.922Z,100466.90
2022-10-18T01:14:33.875Z,100465.39
2022-10-18T01:14:43.868Z,100465.32
2022-10-18T01:14:53.916Z,100465.89
2022-10-18T01:15:03.912Z,100461.75
2022-10-18T01:15:13.836Z,100467.83
2022-10-18T01:15:23.815Z,100463.42
2022-10-18T01:15:33.864Z,100466.66
2022-10-18T01:15:44.003Z,100463.76
2022-10-18T01:15:53.916Z,100465.77
2022-10-18T01:16:03.907Z,100459.31
2022-10-18T01:16:13.861Z,100462.08
2022-10-18T01:16:23.952Z,100463.42
2022-10-18T01:16:33.819Z,100463.14
2022-10-18T01:16:43.925Z,100462.59
2022-10-18T01:16:53.947Z,100464.94
2022-10-18T01:17:03.919Z,100465.17
2022-10-18T01:17:13.966Z,100463.40
2022-10-18T01:17:23.943Z,100461.89
2022-10-18T01:17:34.280Z,100468.26
2022-10-18T01:17:43.943Z,100462.84
2022-10-18T01:17:53.912Z,100462.84
2022-10-18T01:18:03.875Z,100461.50
2022-10-18T01:18:13.852Z,100458.48
2022-10-18T01:18:23.827Z,100465.41
2022-10-18T01:18:33.839Z,100464.91
2022-10-18T01:18:43.923Z,100463.57
2022-10-18T01:18:53.907Z,100461.06
2022-10-18T01:19:03.896Z,100463.06
2022-10-18T01:19:13.883Z,100460.26
2022-10-18T01:19:23.929Z,100464.07
2022-10-18T01:19:33.865Z,100462.23
2022-10-18T01:19:43.937Z,100462.94
2022-10-18T01:19:53.919Z,100461.73
2022-10-18T01:20:03.834Z,100464.58
2022-10-18T01:20:13.841Z,100463.52
2022-10-18T01:20:23.831Z,100461.44
2022-10-18T01:20:33.829Z,100464.19
2022-10-18T01:20:43.932Z,100465.28
2022-10-18T01:20:53.928Z,100459.95
2022-10-18T01:21:03.923Z,100462.68
2022-10-18T01:21:13.835Z,100461.50
2022-10-18T01:21:23.857Z,100465.02
2022-10-18T01:21:33.883Z,100463.02
2022-10-18T01:21:43.899Z,100463.19
2022-10-18T01:21:53.930Z,100466.80
2022-10-18T01:22:03.862Z,100463.12
2022-10-18T01:22:13.950Z,100462.08
2022-10-18T01:22:23.857Z,100462.30
2022-10-18T01:22:33.961Z,100461.58
2022-10-18T01:22:43.832Z,100459.45
2022-10-18T01:22:53.819Z,100466.81
2022-10-18T01:23:03.928Z,100463.88
2022-10-18T01:23:13.874Z,100462.27
2022-10-18T01:23:23.939Z,100464.80
2022-10-18T01:23:33.906Z,100463.62
2022-10-18T01:23:43.889Z,100464.78
2022-10-18T01:23:53.949Z,100463.78
2022-10-18T01:24:03.933Z,100461.98
2022-10-18T01:24:13.900Z,100465.38
2022-10-18T01:24:23.818Z,100462.98
2022-10-18T01:24:33.869Z,100462.05
2022-10-18T01:24:43.926Z,100463.11
2022-10-18T01:24:53.931Z,100460.11
2022-10-18T01:25:03.901Z,100461.79
2022-10-18T01:25:13.910Z,100465.33
2022-10-18T01:25:23.913Z,100460.83
2022-10-18T01:25:33.912Z,100461.50
2022-10-18T01:25:43.939Z,100459.32
2022-10-18T01:25:53.905Z,100461.50
2022-10-18T01:26:03.832Z,100460.01
2022-10-18T01:26:13.933Z,100461.91
2022-10-18T01:26:23.922Z,100466.92
2022-10-18T01:26:33.906Z,100463.02
2022-10-18T01:26:43.859Z,100462.43
2022-10-18T01:26:53.889Z,100463.15
2022-10-18T01:27:03.947Z,100461.09
2022-10-18T01:27:13.859Z,100464.51
2022-10-18T01:27:23.892Z,100464.00
2022-10-18T01:27:33.972Z,100465.83
2022-10-18T01:27:43.876Z,100462.17
2022-10-18T01:27:53.870Z,100461.54
2022-10-18T01:28:03.916Z,100467.50
2022-10-18T01:28:13.871Z,100460.84
2022-10-18T01:28:23.937Z,100461.16
2022-10-18T01:28:34.015Z,100464.68
2022-10-18T01:28:43.968Z,100458.86
2022-10-18T01:28:53.919Z,100458.93
2022-10-18T01:29:03.995Z,100461.59
2022-10-18T01:29:13.820Z,100461.77
2022-10-18T01:29:23.938Z,100464.62
2022-10-18T01:29:33.936Z,100466.05
2022-10-18T01:29:43.907Z,100461.70
2022-10-18T01:29:53.924Z,100462.45
2022-10-18T01:30:03.944Z,100458.59
2022-10-18T01:30:13.884Z,100461.39
2022-10-18T01:30:23.956Z,100463.23
2022-10-18T01:30:33.854Z,100460.22
2022-10-18T01:30:43.884Z,100461.30
2022-10-18T01:30:53.859Z,100462.06
2022-10-18T01:31:03.844Z,100463.30
2022-10-18T01:31:13.875Z,100462.25
2022-10-18T01:31:23.849Z,100464.48
2022-10-18T01:31:33.854Z,100465.22
2022-10-18T01:31:43.866Z,100462.63
2022-10-18T01:31:56.393Z,100466.89
2022-10-18T01:32:03.895Z,100465.59
2022-10-18T01:32:13.892Z,100465.27
2022-10-18T01:32:23.831Z,100463.25
2022-10-18T01:32:33.896Z,100463.49
2022-10-18T01:32:43.860Z,100465.58
2022-10-18T01:32:53.833Z,100466.08
2022-10-18T01:33:03.888Z,100466.53
2022-10-18T01:33:13.910Z,100467.75
2022-10-18T01:33:23.866Z,100469.04
2022-10-18T01:33:33.851Z,100468.03
2022-10-18T01:33:43.854Z,100466.28
2022-10-18T01:33:53.994Z,100467.44
2022-10-18T01:34:03.901Z,100464.11
2022-10-18T01:34:13.941Z,100468.62
2022-10-18T01:34:23.911Z,100470.64
2022-10-18T01:34:33.883Z,100475.09
2022-10-18T01:34:43.898Z,100471.31
2022-10-18T01:34:53.869Z,100475.98
2022-10-18T01:35:03.872Z,100469.13
2022-10-18T01:35:13.878Z,100468.50
2022-10-18T01:35:23.821Z,100471.35
2022-10-18T01:35:33.837Z,100467.73
2022-10-18T01:35:43.940Z,100473.59
2022-10-18T01:35:53.874Z,100472.52
2022-10-18T01:36:03.914Z,100475.84
2022-10-18T01:36:13.922Z,100475.39
2022-10-18T01:36:23.932Z,100474.55
2022-10-18T01:36:33.835Z,100474.67
2022-10-18T01:36:43.835Z,100474.01
2022-10-18T01:36:53.855Z,100476.88
2022-10-18T01:37:03.942Z,100470.61
2022-10-18T01:37:13.890Z,100474.55
2022-10-18T01:37:23.859Z,100474.29
2022-10-18T01:37:34.175Z,100478.29
2022-10-18T01:37:43.934Z,100477.23
2022-10-18T01:37:53.820Z,100475.89
2022-10-18T01:38:03.950Z,100476.39
2022-10-18T01:38:13.818Z,100477.64
2022-10-18T01:38:23.852Z,100478.73
2022-10-18T01:38:33.918Z,100478.41
2022-10-18T01:38:43.833Z,100473.21
2022-10-18T01:38:53.933Z,100478.41
2022-10-18T01:39:03.922Z,100479.91
2022-10-18T01:39:13.927Z,100472.62
2022-10-18T01:39:23.895Z,100478.03
2022-10-18T01:39:33.861Z,100478.41
2022-10-18T01:39:43.892Z,100477.06
2022-10-18T01:39:53.853Z,100478.41
2022-10-18T01:40:03.818Z,100482.16
2022-10-18T01:40:13.814Z,100480.66
2022-10-18T01:40:23.822Z,100480.75
2022-10-18T01:40:33.820Z,100483.33
2022-10-18T01:40:43.864Z,100480.32
2022-10-18T01:40:53.831Z,100480.08
2022-10-18T01:41:03.882Z,100478.72
2022-10-18T01:41:15.790Z,100479.38
2022-10-18T01:41:23.842Z,100477.59
2022-10-18T01:41:33.904Z,100481.66
2022-10-18T01:41:43.908Z,100479.72
2022-10-18T01:41:53.891Z,100481.59
2022-10-18T01:42:03.878Z,100480.08
2022-10-18T01:42:13.834Z,100480.66
2022-10-18T01:42:23.821Z,100483.42
2022-10-18T01:42:33.845Z,100482.09
2022-10-18T01:42:43.869Z,100479.58
2022-10-18T01:42:53.857Z,100479.20
2022-10-18T01:43:03.903Z,100475.20
2022-10-18T01:43:13.882Z,100483.42
2022-10-18T01:43:23.868Z,100477.23
2022-10-18T01:43:33.874Z,100479.22
2022-10-18T01:43:43.838Z,100480.05
2022-10-18T01:43:53.867Z,100479.14
2022-10-18T01:44:03.881Z,100477.97
2022-10-18T01:44:13.888Z,100479.22
2022-10-18T01:44:23.867Z,100480.73
2022-10-18T01:44:33.944Z,100480.73
2022-10-18T01:44:43.822Z,100481.08
2022-10-18T01:44:53.943Z,100481.83
2022-10-18T01:45:03.931Z,100481.99
2022-10-18T01:45:13.818Z,100480.82
2022-10-18T01:45:23.925Z,100477.30
2022-10-18T01:45:33.857Z,100479.26
2022-10-18T01:45:43.895Z,100480.39
2022-10-18T01:45:53.845Z,100483.11
2022-10-18T01:46:03.946Z,100480.00
2022-10-18T01:46:13.896Z,100478.25
2022-10-18T01:46:23.884Z,100481.17
2022-10-18T01:46:33.850Z,100482.84
2022-10-18T01:46:43.815Z,100478.40
2022-10-18T01:46:53.934Z,100482.97
2022-10-18T01:47:03.908Z,100481.79
2022-10-18T01:47:13.882Z,100481.09
2022-10-18T01:47:23.880Z,100480.97
2022-10-18T01:47:34.086Z,100480.09
2022-10-18T01:47:43.937Z,100478.87
2022-10-18T01:47:53.820Z,100478.80
2022-10-18T01:48:03.837Z,100481.88
2022-10-18T01:48:13.924Z,100482.66
2022-10-18T01:48:23.904Z,100483.50
2022-10-18T01:48:33.831Z,100483.74
2022-10-18T01:48:43.879Z,100483.98
2022-10-18T01:48:53.897Z,100481.75
2022-10-18T01:49:03.878Z,100482.59
2022-10-18T01:49:13.914Z,100477.83
2022-10-18T01:49:23.915Z,100477.25
2022-10-18T01:49:33.866Z,100481.01
2022-10-18T01:49:43.875Z,100481.51
2022-10-18T01:49:53.935Z,100481.45
2022-10-18T01:50:03.878Z,100482.18
2022-10-18T01:50:13.832Z,100482.20
2022-10-18T01:50:23.819Z,100479.56
2022-10-18T01:50:33.852Z,100480.90
2022-10-18T01:50:43.857Z,100475.90
2022-10-18T01:50:53.889Z,100482.31
2022-10-18T01:51:03.884Z,100484.05
2022-10-18T01:51:13.913Z,100477.06
2022-10-18T01:51:23.941Z,100482.00
2022-10-18T01:51:33.934Z,100481.49
2022-10-18T01:51:43.945Z,100480.73
2022-10-18T01:51:54.040Z,100482.66
2022-10-18T01:52:03.938Z,100480.89
2022-10-18T01:52:13.824Z,100482.00
2022-10-18T01:52:23.913Z,100481.66
2022-10-18T01:52:34.203Z,100484.00
2022-10-18T01:52:43.917Z,100481.77
2022-10-18T01:52:53.928Z,100480.41
2022-10-18T01:53:03.844Z,100481.92
2022-10-18T01:53:13.889Z,100478.69
2022-10-18T01:53:23.848Z,100482.75
2022-10-18T01:53:33.816Z,100479.42
2022-10-18T01:53:43.859Z,100479.59
2022-10-18T01:53:53.942Z,100479.47
2022-10-18T01:54:03.934Z,100480.81
2022-10-18T01:54:13.890Z,100478.87
2022-10-18T01:54:23.850Z,100479.22
2022-10-18T01:54:33.945Z,100479.62